Sturgeon Bay, WI (54235)

3:30 PM CDT on July 26, 2017 (GMT -0500)
Redwood | | Change Station
Active Advisory: Beach Hazard Statement

Elev 676 ft 44.83 °N, 87.39 °W | Updated 2 seconds ago

Mostly Cloudy
Mostly Cloudy
74.1 °F
Feels Like 70 °F
N
7.4
Wind Variable Wind from SW
Gusts 9.8 mph

Today
High -- | Low -- °F
--% Chance of Precip.
Yesterday
High -- | Low -- °F
Precip. -- in
Pressure 29.99 in
Visibility 10.0 miles
Clouds Few 900 ft
Overcast 2300 ft
Heat Index 70 °F
Dew Point 74 °F
Humidity 99%
Rainfall 0.54 in
Snow Depth Not available.
5:29 AM 8:22 PM
Waxing Crescent, 15% visible
METAR KMNM 261956Z AUTO VRB03KT 10SM FEW009 OVC023 22/21 A2996 RMK AO2 RAE45 SLP156 P0000 T02220211 $
Pressure 29.99 in
Visibility 10.0 miles
Clouds Few 900 ft
Overcast 2300 ft
Heat Index 70 °F
Dew Point 74 °F
Humidity 99%
Rainfall 0.54 in
Snow Depth Not available.
5:29 AM 8:22 PM
Waxing Crescent, 15% visible
METAR KMNM 261956Z AUTO VRB03KT 10SM FEW009 OVC023 22/21 A2996 RMK AO2 RAE45 SLP156 P0000 T02220211 $

Get Your Daily Forecast Email!

Thanks for signing up!

Be on the lookout for a verification email in your inbox.

You'll start receiving severe weather alerts in your inbox..

×

10-Day Weather Forecast

Almanac

Astronomy

Jul. 26, 2017 Rise Set
Actual Time
Civil Twilight
Nautical Twilight
Astronomical Twilight
Moon
Length of Visible Light
Length of Day
Tomorrow will be .
, % of the Moon is Illuminated

Today's Extremes

State Highs State Lows

Community

WunderPhotos

Category 6

Welcome to Category 6. This is the collective home for Weather Underground's featured writeups by Dr. Jeff Masters (right), Bob Henson (left), Chris Burt, and other regular contributors.

Nearby

Air Quality

  Air Quality AQ Index Pollutant
Not available.

Snow Depth

Station Depth Elevation

Earthquake Activity

City Distance Mag. Time & Date
Minimum magnitude displayed is 2.5.

Coastal Water Temperatures

Place Temperature

Stations

Nearby Weather Stations

Station Location Temp. Windchill Dew Point Humidity Wind Precip. Elev Updated Type
                   

Watches & Warnings

Beach Hazard Statement
Issued: 3:18 PM CDT Jul. 26, 2017 – National Weather Service

... Beach hazards statement remains in effect until 7 PM CDT this
evening...

* high wave action, strong currents, and dangerous swimming
conditions expected.

* Location...

beaches of Door County including Rock Island state beach,
Baileys Harbor beaches, and Whitefish Dunes Beach.

Beaches of Kewaunee County including Cresent Beach and city
of Kewaunee beach.

Beaches of Manitowoc County including Point Beach, neshotah
beach, and red arrow beach.

* Winds and waves will subside enough after 7 PM, that the threat
for the high swim risk will no longer exists.

Precautionary/preparedness actions...

High wave action makes swimming difficult as waves on the Great
Lakes occur in rapid succession. High wave action also leads to
strong currents.